UTTT/TAS METAR and TAF weather

Enter ICAO airport designator
Station Type Date Time Source
UTTT METAR 2019/02/17 07:30 UTC NOAA

UTTT 170730Z 17012KT 5000 BR BKN036CB 08/06 Q1009 R08R/29//50 NOSIG


Station Type Date Time Source
UTTT Decoded METAR 2019/02/17 07:30 UTC NOAA

Tashkent, Uzbekistan (UTTT) 41-16N 069-16E 488M
Feb 17, 2019 - 02:30 AM EST / 2019.02.17 0730 UTC
Wind: from the S (170 degrees) at 14 MPH (12 KT):0
Visibility: 3 mile(s):0
Sky conditions: mostly cloudy
Weather: mist; Cumulonimbus clouds observed
Temperature: 46 F (8 C)
Dew Point: 42 F (6 C)
Relative Humidity: 87%
Pressure (altimeter): 29.80 in. Hg (1009 hPa)
ob: UTTT 170730Z 17012KT 5000 BR BKN036CB 08/06 Q1009 R08R/29//50 NOSIG
cycle: 7

Station Type Date Time Source
UTTT TAF 2019/02/17 06:09 UTC NOAA

TAF UTTT 170500Z 1706/1806 18010KT 7000 SCT060CB BKN100
TEMPO 1706/1712 26020G30KT 4000 -SHRA BR SCT010 BKN030CB
TEMPO 1712/1724 33015KT 2000 SHRA BR SCT007 BKN020CB OVC100


Example: see airport list